sensor_id;sensor_type;location;lat;lon;timestamp;pressure;altitude;pressure_sealevel;temperature;humidity
8253;BME280;61313;48.396;10.008;2023-02-11T00:01:32;98090.28;;;1.40;58.54
8253;BME280;61313;48.396;10.008;2023-02-11T00:03:58;98087.69;;;1.41;58.91
8253;BME280;61313;48.396;10.008;2023-02-11T00:06:25;98087.56;;;1.34;59.27
8253;BME280;61313;48.396;10.008;2023-02-11T00:08:52;98087.41;;;1.26;59.49
8253;BME280;61313;48.396;10.008;2023-02-11T00:11:20;98088.38;;;1.31;59.16
8253;BME280;61313;48.396;10.008;2023-02-11T00:13:46;98087.72;;;1.43;59.14
8253;BME280;61313;48.396;10.008;2023-02-11T00:16:15;98084.19;;;1.38;58.45
8253;BME280;61313;48.396;10.008;2023-02-11T00:18:41;98084.25;;;1.41;58.13
8253;BME280;61313;48.396;10.008;2023-02-11T00:21:12;98076.56;;;1.45;58.19
8253;BME280;61313;48.396;10.008;2023-02-11T00:23:37;98087.81;;;1.47;58.10
8253;BME280;61313;48.396;10.008;2023-02-11T00:26:03;98089.41;;;1.41;57.85
8253;BME280;61313;48.396;10.008;2023-02-11T00:28:29;98101.63;;;1.46;57.35
8253;BME280;61313;48.396;10.008;2023-02-11T00:30:57;98100.72;;;1.46;56.55
8253;BME280;61313;48.396;10.008;2023-02-11T00:33:23;98096.44;;;1.48;57.38
8253;BME280;61313;48.396;10.008;2023-02-11T00:35:49;98092.03;;;1.42;57.11
8253;BME280;61313;48.396;10.008;2023-02-11T00:38:14;98090.19;;;1.35;56.75
8253;BME280;61313;48.396;10.008;2023-02-11T00:40:40;98084.34;;;1.45;56.57
8253;BME280;61313;48.396;10.008;2023-02-11T00:43:06;98086.97;;;1.47;56.25
8253;BME280;61313;48.396;10.008;2023-02-11T00:45:31;98087.81;;;1.47;56.09
8253;BME280;61313;48.396;10.008;2023-02-11T00:47:56;98095.22;;;1.29;55.88
8253;BME280;61313;48.396;10.008;2023-02-11T00:50:22;98092.53;;;1.23;56.70
8253;BME280;61313;48.396;10.008;2023-02-11T00:52:48;98095.03;;;1.20;56.99
8253;BME280;61313;48.396;10.008;2023-02-11T00:55:14;98097.75;;;1.26;56.07
8253;BME280;61313;48.396;10.008;2023-02-11T00:57:39;98100.31;;;1.24;56.67
8253;BME280;61313;48.396;10.008;2023-02-11T01:00:06;98099.44;;;1.24;56.56
8253;BME280;61313;48.396;10.008;2023-02-11T01:02:32;98099.56;;;1.30;55.81
8253;BME280;61313;48.396;10.008;2023-02-11T01:04:58;98102.75;;;1.17;55.55
8253;BME280;61313;48.396;10.008;2023-02-11T01:07:24;98103.44;;;1.10;56.42
8253;BME280;61313;48.396;10.008;2023-02-11T01:09:50;98105.97;;;1.07;57.14
8253;BME280;61313;48.396;10.008;2023-02-11T01:12:16;98107.91;;;1.17;56.53
8253;BME280;61313;48.396;10.008;2023-02-11T01:14:41;98107.13;;;1.21;55.76
8253;BME280;61313;48.396;10.008;2023-02-11T01:17:07;98104.34;;;1.12;56.35
8253;BME280;61313;48.396;10.008;2023-02-11T01:19:32;98113.78;;;1.10;56.47
8253;BME280;61313;48.396;10.008;2023-02-11T01:21:58;98112.63;;;0.95;56.66
8253;BME280;61313;48.396;10.008;2023-02-11T01:24:23;98104.06;;;0.98;56.13
8253;BME280;61313;48.396;10.008;2023-02-11T01:26:49;98097.41;;;1.09;56.58
8253;BME280;61313;48.396;10.008;2023-02-11T01:29:14;98090.44;;;1.05;55.97
8253;BME280;61313;48.396;10.008;2023-02-11T01:31:40;98088.25;;;0.84;56.88
8253;BME280;61313;48.396;10.008;2023-02-11T01:34:05;98082.09;;;0.77;56.98
8253;BME280;61313;48.396;10.008;2023-02-11T01:36:31;98076.19;;;0.84;57.05
8253;BME280;61313;48.396;10.008;2023-02-11T01:38:56;98077.00;;;0.82;57.18
8253;BME280;61313;48.396;10.008;2023-02-11T01:41:22;98068.41;;;0.81;56.83
8253;BME280;61313;48.396;10.008;2023-02-11T01:43:49;98077.72;;;0.75;57.02
8253;BME280;61313;48.396;10.008;2023-02-11T01:49:17;98058.97;;;0.83;57.46
8253;BME280;61313;48.396;10.008;2023-02-11T01:51:55;98052.84;;;0.80;57.28
8253;BME280;61313;48.396;10.008;2023-02-11T01:54:25;98050.97;;;0.73;57.98
8253;BME280;61313;48.396;10.008;2023-02-11T01:57:12;98057.91;;;0.74;57.98
8253;BME280;61313;48.396;10.008;2023-02-11T02:08:02;98037.44;;;0.84;58.86
8253;BME280;61313;48.396;10.008;2023-02-11T02:10:30;98023.59;;;0.82;58.76
8253;BME280;61313;48.396;10.008;2023-02-11T02:12:56;98014.59;;;0.63;59.10
8253;BME280;61313;48.396;10.008;2023-02-11T02:15:24;98015.59;;;0.69;59.20
8253;BME280;61313;48.396;10.008;2023-02-11T02:29:02;98002.63;;;0.67;59.95
8253;BME280;61313;48.396;10.008;2023-02-11T02:39:28;97999.44;;;0.38;60.62
8253;BME280;61313;48.396;10.008;2023-02-11T02:41:56;98005.44;;;0.37;60.98
8253;BME280;61313;48.396;10.008;2023-02-11T02:44:21;97994.44;;;0.46;60.97
8253;BME280;61313;48.396;10.008;2023-02-11T02:46:48;98001.41;;;0.50;60.94
8253;BME280;61313;48.396;10.008;2023-02-11T02:49:14;97996.88;;;0.38;60.87
8253;BME280;61313;48.396;10.008;2023-02-11T03:02:25;97995.56;;;0.58;60.16
8253;BME280;61313;48.396;10.008;2023-02-11T03:04:57;97990.44;;;0.60;58.90
8253;BME280;61313;48.396;10.008;2023-02-11T03:12:41;97990.81;;;0.78;58.68
8253;BME280;61313;48.396;10.008;2023-02-11T03:15:09;98000.16;;;0.72;58.30
8253;BME280;61313;48.396;10.008;2023-02-11T03:17:38;98001.81;;;0.70;57.40
8253;BME280;61313;48.396;10.008;2023-02-11T03:20:06;98009.34;;;0.59;58.25
8253;BME280;61313;48.396;10.008;2023-02-11T03:22:40;98004.00;;;0.50;57.84
8253;BME280;61313;48.396;10.008;2023-02-11T03:25:07;97998.75;;;0.47;58.01
8253;BME280;61313;48.396;10.008;2023-02-11T03:27:58;97996.25;;;0.51;57.20
8253;BME280;61313;48.396;10.008;2023-02-11T03:30:34;97990.69;;;0.33;57.60
8253;BME280;61313;48.396;10.008;2023-02-11T03:33:12;97996.47;;;0.21;57.87
8253;BME280;61313;48.396;10.008;2023-02-11T03:35:45;97994.97;;;0.31;57.72
8253;BME280;61313;48.396;10.008;2023-02-11T03:38:24;97986.66;;;0.44;57.33
8253;BME280;61313;48.396;10.008;2023-02-11T03:40:51;97973.88;;;0.50;57.36
8253;BME280;61313;48.396;10.008;2023-02-11T03:43:21;97982.34;;;0.43;57.18
8253;BME280;61313;48.396;10.008;2023-02-11T03:45:51;97979.50;;;0.32;58.47
8253;BME280;61313;48.396;10.008;2023-02-11T03:48:22;97980.25;;;0.27;58.58
8253;BME280;61313;48.396;10.008;2023-02-11T03:50:51;97971.19;;;0.46;58.56
8253;BME280;61313;48.396;10.008;2023-02-11T03:53:19;97990.09;;;0.45;58.99
8253;BME280;61313;48.396;10.008;2023-02-11T03:55:46;97990.28;;;0.54;59.48
8253;BME280;61313;48.396;10.008;2023-02-11T03:58:13;97994.94;;;0.29;59.83
8253;BME280;61313;48.396;10.008;2023-02-11T04:00:41;97989.97;;;0.38;59.54
8253;BME280;61313;48.396;10.008;2023-02-11T04:03:08;97973.63;;;0.38;59.68
8253;BME280;61313;48.396;10.008;2023-02-11T04:05:33;97970.25;;;0.42;59.43
8253;BME280;61313;48.396;10.008;2023-02-11T04:07:59;97972.00;;;0.43;59.15
8253;BME280;61313;48.396;10.008;2023-02-11T04:10:24;97979.72;;;0.41;59.86
8253;BME280;61313;48.396;10.008;2023-02-11T04:12:50;97998.75;;;0.45;59.52
8253;BME280;61313;48.396;10.008;2023-02-11T04:15:15;97994.34;;;0.41;60.03
8253;BME280;61313;48.396;10.008;2023-02-11T04:17:41;98000.63;;;0.54;58.96
8253;BME280;61313;48.396;10.008;2023-02-11T04:20:07;98003.25;;;0.55;59.46
8253;BME280;61313;48.396;10.008;2023-02-11T04:22:33;98007.72;;;0.62;59.17
8253;BME280;61313;48.396;10.008;2023-02-11T04:24:58;98020.63;;;0.62;59.73
8253;BME280;61313;48.396;10.008;2023-02-11T04:27:23;98027.59;;;0.67;59.37
8253;BME280;61313;48.396;10.008;2023-02-11T04:29:49;98020.06;;;0.76;57.99
8253;BME280;61313;48.396;10.008;2023-02-11T04:32:14;98009.72;;;0.77;58.28
8253;BME280;61313;48.396;10.008;2023-02-11T04:34:40;98012.47;;;0.85;58.15
8253;BME280;61313;48.396;10.008;2023-02-11T04:37:06;98021.88;;;0.81;57.57
8253;BME280;61313;48.396;10.008;2023-02-11T04:39:31;98021.94;;;0.84;57.35
8253;BME280;61313;48.396;10.008;2023-02-11T04:41:56;98026.09;;;0.78;57.19
8253;BME280;61313;48.396;10.008;2023-02-11T04:44:22;98013.22;;;0.79;56.83
8253;BME280;61313;48.396;10.008;2023-02-11T04:46:47;98020.06;;;0.76;56.48
8253;BME280;61313;48.396;10.008;2023-02-11T04:49:14;98026.09;;;0.78;57.30
8253;BME280;61313;48.396;10.008;2023-02-11T04:51:40;98018.28;;;0.73;56.95
8253;BME280;61313;48.396;10.008;2023-02-11T04:54:05;98019.19;;;0.77;56.30
8253;BME280;61313;48.396;10.008;2023-02-11T04:56:31;98021.06;;;0.84;56.92
8253;BME280;61313;48.396;10.008;2023-02-11T04:58:56;98014.78;;;0.73;56.73
8253;BME280;61313;48.396;10.008;2023-02-11T05:01:22;98016.22;;;0.57;56.98
8253;BME280;61313;48.396;10.008;2023-02-11T05:03:47;98023.16;;;0.59;56.90
8253;BME280;61313;48.396;10.008;2023-02-11T05:06:13;98013.59;;;0.55;57.75
8253;BME280;61313;48.396;10.008;2023-02-11T05:08:38;98020.41;;;0.53;57.26
8253;BME280;61313;48.396;10.008;2023-02-11T05:11:04;98020.41;;;0.53;58.20
8253;BME280;61313;48.396;10.008;2023-02-11T05:13:30;98018.09;;;0.64;58.38
8253;BME280;61313;48.396;10.008;2023-02-11T05:15:56;98021.63;;;0.71;58.07
8253;BME280;61313;48.396;10.008;2023-02-11T05:18:22;98015.66;;;0.72;58.29
8253;BME280;61313;48.396;10.008;2023-02-11T05:20:47;98029.41;;;0.71;58.59
8253;BME280;61313;48.396;10.008;2023-02-11T05:23:13;98010.06;;;0.93;58.24
8253;BME280;61313;48.396;10.008;2023-02-11T05:25:38;98002.94;;;0.81;58.34
8253;BME280;61313;48.396;10.008;2023-02-11T05:28:04;97995.09;;;0.78;59.05
8253;BME280;61313;48.396;10.008;2023-02-11T05:30:30;97998.44;;;0.72;59.49
8253;BME280;61313;48.396;10.008;2023-02-11T05:32:55;97993.22;;;0.71;59.25
8253;BME280;61313;48.396;10.008;2023-02-11T05:35:21;97992.34;;;0.69;59.44
8253;BME280;61313;48.396;10.008;2023-02-11T05:37:47;97994.63;;;0.55;60.76
8253;BME280;61313;48.396;10.008;2023-02-11T05:40:12;97991.34;;;0.63;60.26
8253;BME280;61313;48.396;10.008;2023-02-11T05:42:38;97987.44;;;0.82;60.18
8253;BME280;61313;48.396;10.008;2023-02-11T05:45:04;97997.63;;;0.75;60.67
8253;BME280;61313;48.396;10.008;2023-02-11T05:47:30;97984.78;;;0.79;60.18
8253;BME280;61313;48.396;10.008;2023-02-11T05:49:55;97976.09;;;0.74;60.25
8253;BME280;61313;48.396;10.008;2023-02-11T05:52:22;97973.47;;;0.73;59.95
8253;BME280;61313;48.396;10.008;2023-02-11T05:54:47;97965.66;;;0.70;60.92
8253;BME280;61313;48.396;10.008;2023-02-11T05:57:15;97967.19;;;0.60;60.46
8253;BME280;61313;48.396;10.008;2023-02-11T05:59:41;97957.72;;;0.60;61.28
8253;BME280;61313;48.396;10.008;2023-02-11T06:02:06;97943.06;;;0.59;61.22
8253;BME280;61313;48.396;10.008;2023-02-11T06:04:33;97938.88;;;0.65;61.20
8253;BME280;61313;48.396;10.008;2023-02-11T06:06:58;97953.47;;;0.62;60.79
8253;BME280;61313;48.396;10.008;2023-02-11T06:09:24;97963.63;;;0.55;62.22
8253;BME280;61313;48.396;10.008;2023-02-11T06:11:50;97982.44;;;0.49;62.07
8253;BME280;61313;48.396;10.008;2023-02-11T06:14:15;97995.47;;;0.54;61.59
8253;BME280;61313;48.396;10.008;2023-02-11T06:16:41;97985.59;;;0.77;61.00
8253;BME280;61313;48.396;10.008;2023-02-11T06:19:06;97969.34;;;0.81;60.98
8253;BME280;61313;48.396;10.008;2023-02-11T06:21:31;97971.59;;;0.66;61.39
8253;BME280;61313;48.396;10.008;2023-02-11T06:23:57;97960.53;;;0.73;60.42
8253;BME280;61313;48.396;10.008;2023-02-11T06:26:22;97956.28;;;0.73;60.88
8253;BME280;61313;48.396;10.008;2023-02-11T06:28:48;97961.25;;;0.66;60.77
8253;BME280;61313;48.396;10.008;2023-02-11T06:31:14;97964.13;;;0.79;61.14
8253;BME280;61313;48.396;10.008;2023-02-11T06:33:40;97972.81;;;0.83;60.75
8253;BME280;61313;48.396;10.008;2023-02-11T06:36:17;97964.88;;;0.75;60.92
8253;BME280;61313;48.396;10.008;2023-02-11T06:38:44;97970.97;;;0.76;60.91
8253;BME280;61313;48.396;10.008;2023-02-11T06:41:11;97968.56;;;0.87;60.51
8253;BME280;61313;48.396;10.008;2023-02-11T06:43:36;97978.94;;;0.90;60.79
8253;BME280;61313;48.396;10.008;2023-02-11T06:46:02;97985.13;;;0.96;60.10
8253;BME280;61313;48.396;10.008;2023-02-11T06:48:27;97991.88;;;0.90;61.46
8253;BME280;61313;48.396;10.008;2023-02-11T06:50:53;97997.13;;;0.94;60.83
8253;BME280;61313;48.396;10.008;2023-02-11T06:53:18;97993.91;;;1.04;60.21
8253;BME280;61313;48.396;10.008;2023-02-11T06:55:43;97991.19;;;0.98;60.87
8253;BME280;61313;48.396;10.008;2023-02-11T06:58:09;97988.53;;;0.94;60.98
8253;BME280;61313;48.396;10.008;2023-02-11T07:00:35;97995.72;;;1.10;60.65
8253;BME280;61313;48.396;10.008;2023-02-11T07:03:01;98001.75;;;1.11;59.56
8253;BME280;61313;48.396;10.008;2023-02-11T07:05:26;98004.16;;;1.00;60.34
8253;BME280;61313;48.396;10.008;2023-02-11T07:07:52;98005.06;;;1.02;60.37
8253;BME280;61313;48.396;10.008;2023-02-11T07:10:17;97996.50;;;1.06;59.14
8253;BME280;61313;48.396;10.008;2023-02-11T07:12:43;97998.28;;;1.09;59.46
8253;BME280;61313;48.396;10.008;2023-02-11T07:15:08;98001.03;;;1.18;58.73
8253;BME280;61313;48.396;10.008;2023-02-11T07:17:34;97990.88;;;1.27;58.89
8253;BME280;61313;48.396;10.008;2023-02-11T07:20:00;97988.25;;;1.24;58.64
8253;BME280;61313;48.396;10.008;2023-02-11T07:22:25;97993.28;;;1.18;59.19
8253;BME280;61313;48.396;10.008;2023-02-11T07:24:50;97996.13;;;1.30;58.66
8253;BME280;61313;48.396;10.008;2023-02-11T07:27:16;97998.38;;;1.13;58.70
8253;BME280;61313;48.396;10.008;2023-02-11T07:29:41;97996.84;;;1.24;59.29
8253;BME280;61313;48.396;10.008;2023-02-11T07:32:07;97995.19;;;1.26;59.47
8253;BME280;61313;48.396;10.008;2023-02-11T07:34:33;97986.63;;;1.31;58.90
8253;BME280;61313;48.396;10.008;2023-02-11T07:36:58;97977.44;;;1.46;58.78
8253;BME280;61313;48.396;10.008;2023-02-11T07:39:24;97971.50;;;1.52;58.82
8253;BME280;61313;48.396;10.008;2023-02-11T07:41:52;97985.69;;;1.76;58.16
8253;BME280;61313;48.396;10.008;2023-02-11T07:44:17;97970.19;;;3.05;55.66
8253;BME280;61313;48.396;10.008;2023-02-11T07:46:43;97955.81;;;4.65;68.00
8253;BME280;61313;48.396;10.008;2023-02-11T07:49:10;97955.56;;;4.14;52.11
8253;BME280;61313;48.396;10.008;2023-02-11T07:51:35;97965.50;;;5.03;53.01
8253;BME280;61313;48.396;10.008;2023-02-11T07:54:01;97949.03;;;5.04;48.48
8253;BME280;61313;48.396;10.008;2023-02-11T07:56:27;97963.66;;;4.71;49.47
8253;BME280;61313;48.396;10.008;2023-02-11T07:58:53;97949.56;;;4.26;49.84
8253;BME280;61313;48.396;10.008;2023-02-11T08:01:21;97952.03;;;4.05;50.26
8253;BME280;61313;48.396;10.008;2023-02-11T08:03:51;97949.78;;;4.69;49.29
8253;BME280;61313;48.396;10.008;2023-02-11T08:06:19;97953.50;;;6.02;46.23
8253;BME280;61313;48.396;10.008;2023-02-11T08:08:45;97945.72;;;7.85;41.52
8253;BME280;61313;48.396;10.008;2023-02-11T08:11:14;97951.34;;;9.14;38.67
8253;BME280;61313;48.396;10.008;2023-02-11T08:13:41;97954.97;;;8.24;40.03
8253;BME280;61313;48.396;10.008;2023-02-11T08:16:07;97974.91;;;7.14;41.83
8253;BME280;61313;48.396;10.008;2023-02-11T08:18:33;97976.91;;;6.46;43.82
8253;BME280;61313;48.396;10.008;2023-02-11T08:21:06;97990.81;;;5.73;45.79
8253;BME280;61313;48.396;10.008;2023-02-11T08:23:33;97985.63;;;5.65;45.87
8253;BME280;61313;48.396;10.008;2023-02-11T08:26:04;97996.00;;;5.47;46.36
8253;BME280;61313;48.396;10.008;2023-02-11T08:28:30;97981.25;;;5.58;46.27
8253;BME280;61313;48.396;10.008;2023-02-11T08:30:55;97979.53;;;5.79;46.15
8253;BME280;61313;48.396;10.008;2023-02-11T08:33:21;97975.22;;;5.93;45.48
8253;BME280;61313;48.396;10.008;2023-02-11T08:35:46;97964.78;;;5.84;45.52
8253;BME280;61313;48.396;10.008;2023-02-11T08:38:12;97970.81;;;5.38;46.79
8253;BME280;61313;48.396;10.008;2023-02-11T08:40:37;97974.16;;;4.90;48.20
8253;BME280;61313;48.396;10.008;2023-02-11T08:43:03;97976.97;;;6.08;46.44
8253;BME280;61313;48.396;10.008;2023-02-11T08:45:28;97979.00;;;8.62;40.10
8253;BME280;61313;48.396;10.008;2023-02-11T08:47:53;97974.84;;;9.80;36.94
8253;BME280;61313;48.396;10.008;2023-02-11T08:50:19;97968.75;;;10.80;35.02
8253;BME280;61313;48.396;10.008;2023-02-11T08:52:44;97966.31;;;11.93;34.31
8253;BME280;61313;48.396;10.008;2023-02-11T08:55:10;97959.34;;;11.53;33.80
8253;BME280;61313;48.396;10.008;2023-02-11T08:57:35;97977.09;;;9.46;37.28
8253;BME280;61313;48.396;10.008;2023-02-11T09:00:02;97987.72;;;8.64;39.68
8253;BME280;61313;48.396;10.008;2023-02-11T09:02:27;97997.41;;;7.40;41.91
8253;BME280;61313;48.396;10.008;2023-02-11T09:04:53;97996.75;;;6.96;43.29
8253;BME280;61313;48.396;10.008;2023-02-11T09:07:19;97995.16;;;6.40;44.80
8253;BME280;61313;48.396;10.008;2023-02-11T09:09:44;97984.75;;;5.83;46.24
8253;BME280;61313;48.396;10.008;2023-02-11T09:12:10;98002.09;;;5.70;47.15
8253;BME280;61313;48.396;10.008;2023-02-11T09:14:35;97964.78;;;5.70;46.94
8253;BME280;61313;48.396;10.008;2023-02-11T09:17:01;97984.63;;;5.09;49.03
8253;BME280;61313;48.396;10.008;2023-02-11T09:19:26;97992.47;;;5.23;49.09
8253;BME280;61313;48.396;10.008;2023-02-11T09:21:52;97969.94;;;5.33;48.48
8253;BME280;61313;48.396;10.008;2023-02-11T09:24:17;97967.28;;;5.13;48.96
8253;BME280;61313;48.396;10.008;2023-02-11T09:26:43;97966.50;;;5.54;48.28
8253;BME280;61313;48.396;10.008;2023-02-11T09:29:09;97947.19;;;6.93;45.20
8253;BME280;61313;48.396;10.008;2023-02-11T09:31:34;97952.72;;;7.84;43.01
8253;BME280;61313;48.396;10.008;2023-02-11T09:34:04;97962.16;;;7.98;42.26
8253;BME280;61313;48.396;10.008;2023-02-11T09:36:34;97955.66;;;7.34;43.93
8253;BME280;61313;48.396;10.008;2023-02-11T09:39:03;97937.31;;;7.43;43.70
8253;BME280;61313;48.396;10.008;2023-02-11T09:41:34;97948.63;;;7.47;44.16
8253;BME280;61313;48.396;10.008;2023-02-11T09:44:04;97948.53;;;7.59;43.86
8253;BME280;61313;48.396;10.008;2023-02-11T09:46:41;97952.53;;;8.03;42.89
8253;BME280;61313;48.396;10.008;2023-02-11T09:49:17;97957.69;;;8.12;42.89
8253;BME280;61313;48.396;10.008;2023-02-11T09:51:48;97950.88;;;8.84;41.34
8253;BME280;61313;48.396;10.008;2023-02-11T09:54:22;97952.84;;;9.33;40.54
8253;BME280;61313;48.396;10.008;2023-02-11T09:56:50;97942.84;;;9.58;39.71
8253;BME280;61313;48.396;10.008;2023-02-11T09:59:16;97942.72;;;9.66;39.05
8253;BME280;61313;48.396;10.008;2023-02-11T10:01:59;97946.13;;;9.74;39.46
8253;BME280;61313;48.396;10.008;2023-02-11T10:07:43;97935.44;;;9.27;40.13
8253;BME280;61313;48.396;10.008;2023-02-11T10:10:16;97939.16;;;9.11;41.13
8253;BME280;61313;48.396;10.008;2023-02-11T10:13:10;97928.97;;;8.91;41.44
8253;BME280;61313;48.396;10.008;2023-02-11T10:15:43;97936.06;;;8.80;41.87
8253;BME280;61313;48.396;10.008;2023-02-11T10:23:45;97931.91;;;7.69;44.11
8253;BME280;61313;48.396;10.008;2023-02-11T10:26:15;97930.19;;;7.67;44.18
8253;BME280;61313;48.396;10.008;2023-02-11T10:28:44;97938.75;;;7.84;44.61
8253;BME280;61313;48.396;10.008;2023-02-11T10:31:23;97935.06;;;8.08;43.93
8253;BME280;61313;48.396;10.008;2023-02-11T10:33:55;97936.38;;;8.55;42.94
8253;BME280;61313;48.396;10.008;2023-02-11T10:36:30;97933.81;;;9.20;41.84
8253;BME280;61313;48.396;10.008;2023-02-11T10:39:17;97928.84;;;9.00;41.42
8253;BME280;61313;48.396;10.008;2023-02-11T10:44:29;97924.34;;;8.33;43.87
8253;BME280;61313;48.396;10.008;2023-02-11T10:46:56;97910.56;;;8.20;43.53
8253;BME280;61313;48.396;10.008;2023-02-11T10:49:43;97906.09;;;8.28;43.00
8253;BME280;61313;48.396;10.008;2023-02-11T10:52:14;97913.63;;;8.59;43.29
8253;BME280;61313;48.396;10.008;2023-02-11T10:55:08;97902.09;;;8.75;42.21
8253;BME280;61313;48.396;10.008;2023-02-11T10:57:58;97902.66;;;9.00;41.39
8253;BME280;61313;48.396;10.008;2023-02-11T11:00:41;97896.09;;;9.30;41.73
8253;BME280;61313;48.396;10.008;2023-02-11T11:03:22;97893.25;;;9.46;41.65
8253;BME280;61313;48.396;10.008;2023-02-11T11:05:54;97888.28;;;9.83;40.75
8253;BME280;61313;48.396;10.008;2023-02-11T11:08:20;97871.72;;;9.80;40.44
8253;BME280;61313;48.396;10.008;2023-02-11T11:11:07;97882.84;;;9.94;40.57
8253;BME280;61313;48.396;10.008;2023-02-11T11:13:41;97883.19;;;9.74;40.75
8253;BME280;61313;48.396;10.008;2023-02-11T11:16:21;97882.69;;;10.03;40.14
8253;BME280;61313;48.396;10.008;2023-02-11T11:18:52;97877.94;;;10.25;39.59
8253;BME280;61313;48.396;10.008;2023-02-11T11:21:19;97872.34;;;10.44;39.08
8253;BME280;61313;48.396;10.008;2023-02-11T11:23:49;97880.78;;;10.58;39.08
8253;BME280;61313;48.396;10.008;2023-02-11T11:26:16;97870.88;;;10.72;38.53
8253;BME280;61313;48.396;10.008;2023-02-11T11:31:34;97872.91;;;10.59;38.36
8253;BME280;61313;48.396;10.008;2023-02-11T11:34:31;97872.63;;;10.73;38.52
8253;BME280;61313;48.396;10.008;2023-02-11T11:36:59;97863.25;;;11.00;37.77
8253;BME280;61313;48.396;10.008;2023-02-11T11:39:29;97863.22;;;10.63;38.75
8253;BME280;61313;48.396;10.008;2023-02-11T11:41:58;97864.25;;;10.56;39.06
8253;BME280;61313;48.396;10.008;2023-02-11T11:54:57;97866.66;;;11.43;44.83
8253;BME280;61313;48.396;10.008;2023-02-11T11:57:26;97860.84;;;11.30;38.88
8253;BME280;61313;48.396;10.008;2023-02-11T11:59:54;97852.88;;;11.33;38.74
8253;BME280;61313;48.396;10.008;2023-02-11T12:02:50;97855.47;;;11.36;38.41
8253;BME280;61313;48.396;10.008;2023-02-11T12:05:31;97854.53;;;11.39;38.55
8253;BME280;61313;48.396;10.008;2023-02-11T12:30:23;97837.22;;;11.29;39.72
8253;BME280;61313;48.396;10.008;2023-02-11T12:43:33;97821.97;;;11.44;39.05
8253;BME280;61313;48.396;10.008;2023-02-11T12:46:16;97817.72;;;11.39;39.22
8253;BME280;61313;48.396;10.008;2023-02-11T12:51:49;97824.84;;;10.96;40.35
8253;BME280;61313;48.396;10.008;2023-02-11T12:54:52;97821.47;;;11.29;39.39
8253;BME280;61313;48.396;10.008;2023-02-11T12:57:22;97826.50;;;11.38;39.38
8253;BME280;61313;48.396;10.008;2023-02-11T13:05:45;97806.06;;;11.49;38.95
8253;BME280;61313;48.396;10.008;2023-02-11T13:11:29;97803.44;;;11.49;39.07
8253;BME280;61313;48.396;10.008;2023-02-11T13:14:05;97810.28;;;11.56;39.12
8253;BME280;61313;48.396;10.008;2023-02-11T13:16:46;97802.47;;;11.53;39.07
8253;BME280;61313;48.396;10.008;2023-02-11T13:21:59;97788.28;;;11.25;39.94
8253;BME280;61313;48.396;10.008;2023-02-11T13:24:43;97783.72;;;11.31;39.27
8253;BME280;61313;48.396;10.008;2023-02-11T13:27:23;97782.78;;;11.34;39.86
8253;BME280;61313;48.396;10.008;2023-02-11T13:38:00;97780.34;;;10.89;40.90
8253;BME280;61313;48.396;10.008;2023-02-11T13:40:36;97784.97;;;10.79;40.88
8253;BME280;61313;48.396;10.008;2023-02-11T13:43:05;97778.38;;;10.61;40.99
8253;BME280;61313;48.396;10.008;2023-02-11T13:45:45;97779.22;;;10.62;41.62
8253;BME280;61313;48.396;10.008;2023-02-11T13:48:20;97780.34;;;10.50;41.74
8253;BME280;61313;48.396;10.008;2023-02-11T13:50:52;97786.06;;;10.28;41.80
8253;BME280;61313;48.396;10.008;2023-02-11T13:53:19;97793.34;;;10.12;42.43
8253;BME280;61313;48.396;10.008;2023-02-11T13:55:50;97795.75;;;10.23;42.47
8253;BME280;61313;48.396;10.008;2023-02-11T14:00:53;97794.97;;;10.18;42.58
8253;BME280;61313;48.396;10.008;2023-02-11T14:09:43;97780.16;;;10.15;43.14
8253;BME280;61313;48.396;10.008;2023-02-11T14:11:49;97787.50;;;9.96;43.53
8253;BME280;61313;48.396;10.008;2023-02-11T14:14:57;97784.28;;;9.84;44.00
8253;BME280;61313;48.396;10.008;2023-02-11T14:17:28;97781.72;;;9.81;43.74
8253;BME280;61313;48.396;10.008;2023-02-11T14:19:55;97773.84;;;9.81;43.83
8253;BME280;61313;48.396;10.008;2023-02-11T14:22:30;97776.41;;;9.84;43.18
8253;BME280;61313;48.396;10.008;2023-02-11T14:25:15;97786.97;;;9.79;43.69
8253;BME280;61313;48.396;10.008;2023-02-11T14:27:50;97779.34;;;9.67;44.21
8253;BME280;61313;48.396;10.008;2023-02-11T14:30:33;97780.31;;;9.61;44.21
8253;BME280;61313;48.396;10.008;2023-02-11T14:41:31;97795.00;;;9.70;43.63
8253;BME280;61313;48.396;10.008;2023-02-11T14:46:43;97793.13;;;9.78;43.95
8253;BME280;61313;48.396;10.008;2023-02-11T14:49:19;97792.41;;;9.68;44.06
8253;BME280;61313;48.396;10.008;2023-02-11T14:51:46;97796.78;;;9.69;44.15
8253;BME280;61313;48.396;10.008;2023-02-11T14:54:16;97800.28;;;9.68;43.97
8253;BME280;61313;48.396;10.008;2023-02-11T14:56:43;97799.53;;;9.62;43.33
8253;BME280;61313;48.396;10.008;2023-02-11T14:59:20;97800.53;;;9.54;44.46
8253;BME280;61313;48.396;10.008;2023-02-11T15:01:51;97792.69;;;9.51;44.08
8253;BME280;61313;48.396;10.008;2023-02-11T15:06:52;97784.81;;;9.54;44.87
8253;BME280;61313;48.396;10.008;2023-02-11T15:11:48;97783.06;;;9.53;44.05
8253;BME280;61313;48.396;10.008;2023-02-11T15:14:22;97782.28;;;9.50;44.53
8253;BME280;61313;48.396;10.008;2023-02-11T15:16:49;97784.97;;;9.45;44.51
8253;BME280;61313;48.396;10.008;2023-02-11T15:21:47;97784.22;;;9.37;45.36
8253;BME280;61313;48.396;10.008;2023-02-11T15:24:31;97783.31;;;9.40;44.46
8253;BME280;61313;48.396;10.008;2023-02-11T15:29:39;97786.75;;;9.43;45.39
8253;BME280;61313;48.396;10.008;2023-02-11T15:32:19;97801.69;;;9.37;45.17
8253;BME280;61313;48.396;10.008;2023-02-11T15:34:46;97804.41;;;9.32;45.05
8253;BME280;61313;48.396;10.008;2023-02-11T15:37:18;97820.09;;;9.33;45.89
8253;BME280;61313;48.396;10.008;2023-02-11T15:39:44;97816.50;;;9.38;45.98
8253;BME280;61313;48.396;10.008;2023-02-11T15:42:27;97821.28;;;9.13;46.06
8253;BME280;61313;48.396;10.008;2023-02-11T15:47:51;97827.53;;;9.02;46.30
8253;BME280;61313;48.396;10.008;2023-02-11T15:50:29;97835.00;;;8.69;46.73
8253;BME280;61313;48.396;10.008;2023-02-11T15:53:00;97840.13;;;8.79;46.90
8253;BME280;61313;48.396;10.008;2023-02-11T15:55:27;97831.31;;;8.83;46.74
8253;BME280;61313;48.396;10.008;2023-02-11T15:57:56;97836.03;;;8.58;47.62
8253;BME280;61313;48.396;10.008;2023-02-11T16:00:24;97842.06;;;8.63;47.88